sensor_id;sensor_type;location;lat;lon;timestamp;P1;durP1;ratioP1;P2;durP2;ratioP2
19543;SDS011;9917;51.256;7.152;2022-11-14T00:02:09;8.27;;;5.07;;
19543;SDS011;9917;51.256;7.152;2022-11-14T00:04:35;9.83;;;5.80;;
19543;SDS011;9917;51.256;7.152;2022-11-14T00:07:01;10.50;;;6.43;;
19543;SDS011;9917;51.256;7.152;2022-11-14T00:09:28;8.00;;;5.20;;
19543;SDS011;9917;51.256;7.152;2022-11-14T00:11:54;9.77;;;5.77;;
19543;SDS011;9917;51.256;7.152;2022-11-14T00:14:20;9.70;;;6.13;;
19543;SDS011;9917;51.256;7.152;2022-11-14T00:16:46;11.77;;;6.10;;
19543;SDS011;9917;51.256;7.152;2022-11-14T00:19:13;10.00;;;5.60;;
19543;SDS011;9917;51.256;7.152;2022-11-14T00:21:39;9.07;;;5.30;;
19543;SDS011;9917;51.256;7.152;2022-11-14T00:24:05;9.07;;;5.33;;
19543;SDS011;9917;51.256;7.152;2022-11-14T00:26:31;9.00;;;5.57;;
19543;SDS011;9917;51.256;7.152;2022-11-14T00:28:58;9.17;;;5.30;;
19543;SDS011;9917;51.256;7.152;2022-11-14T00:31:24;9.90;;;4.87;;
19543;SDS011;9917;51.256;7.152;2022-11-14T00:33:50;7.27;;;4.73;;
19543;SDS011;9917;51.256;7.152;2022-11-14T00:36:17;7.93;;;5.03;;
19543;SDS011;9917;51.256;7.152;2022-11-14T00:38:43;8.97;;;4.87;;
19543;SDS011;9917;51.256;7.152;2022-11-14T00:41:09;10.07;;;4.83;;
19543;SDS011;9917;51.256;7.152;2022-11-14T00:43:35;9.77;;;4.87;;
19543;SDS011;9917;51.256;7.152;2022-11-14T00:46:01;7.07;;;4.80;;
19543;SDS011;9917;51.256;7.152;2022-11-14T00:48:27;8.47;;;4.90;;
19543;SDS011;9917;51.256;7.152;2022-11-14T00:50:53;11.10;;;4.80;;
19543;SDS011;9917;51.256;7.152;2022-11-14T00:53:21;7.90;;;4.87;;
19543;SDS011;9917;51.256;7.152;2022-11-14T00:55:47;8.60;;;4.97;;
19543;SDS011;9917;51.256;7.152;2022-11-14T00:58:13;7.67;;;4.97;;
19543;SDS011;9917;51.256;7.152;2022-11-14T01:00:39;8.43;;;5.27;;
19543;SDS011;9917;51.256;7.152;2022-11-14T01:03:05;8.97;;;5.10;;
19543;SDS011;9917;51.256;7.152;2022-11-14T01:05:31;6.47;;;4.53;;
19543;SDS011;9917;51.256;7.152;2022-11-14T01:07:57;11.00;;;5.33;;
19543;SDS011;9917;51.256;7.152;2022-11-14T01:10:24;10.27;;;5.37;;
19543;SDS011;9917;51.256;7.152;2022-11-14T01:12:50;8.57;;;4.90;;
19543;SDS011;9917;51.256;7.152;2022-11-14T01:15:16;7.90;;;4.83;;
19543;SDS011;9917;51.256;7.152;2022-11-14T01:17:42;9.90;;;5.50;;
19543;SDS011;9917;51.256;7.152;2022-11-14T01:20:08;10.00;;;5.20;;
19543;SDS011;9917;51.256;7.152;2022-11-14T01:22:34;9.17;;;5.10;;
19543;SDS011;9917;51.256;7.152;2022-11-14T01:25:00;8.13;;;4.63;;
19543;SDS011;9917;51.256;7.152;2022-11-14T01:27:30;7.73;;;4.87;;
19543;SDS011;9917;51.256;7.152;2022-11-14T01:29:56;7.97;;;4.47;;
19543;SDS011;9917;51.256;7.152;2022-11-14T01:32:22;8.77;;;4.80;;
19543;SDS011;9917;51.256;7.152;2022-11-14T01:34:48;7.77;;;5.13;;
19543;SDS011;9917;51.256;7.152;2022-11-14T01:37:14;8.40;;;4.83;;
19543;SDS011;9917;51.256;7.152;2022-11-14T01:39:40;7.00;;;4.70;;
19543;SDS011;9917;51.256;7.152;2022-11-14T01:42:06;8.53;;;4.63;;
19543;SDS011;9917;51.256;7.152;2022-11-14T01:44:46;8.37;;;4.40;;
19543;SDS011;9917;51.256;7.152;2022-11-14T01:47:15;7.97;;;4.80;;
19543;SDS011;9917;51.256;7.152;2022-11-14T01:49:44;8.07;;;4.83;;
19543;SDS011;9917;51.256;7.152;2022-11-14T01:52:13;8.00;;;4.63;;
19543;SDS011;9917;51.256;7.152;2022-11-14T01:54:43;7.50;;;4.20;;
19543;SDS011;9917;51.256;7.152;2022-11-14T01:57:11;7.57;;;4.17;;
19543;SDS011;9917;51.256;7.152;2022-11-14T01:59:40;7.23;;;4.43;;
19543;SDS011;9917;51.256;7.152;2022-11-14T02:02:12;5.37;;;3.80;;
19543;SDS011;9917;51.256;7.152;2022-11-14T02:04:41;8.80;;;4.57;;
19543;SDS011;9917;51.256;7.152;2022-11-14T02:07:10;7.90;;;3.97;;
19543;SDS011;9917;51.256;7.152;2022-11-14T02:09:38;7.07;;;4.17;;
19543;SDS011;9917;51.256;7.152;2022-11-14T02:12:07;8.30;;;3.60;;
19543;SDS011;9917;51.256;7.152;2022-11-14T02:14:36;8.00;;;4.00;;
19543;SDS011;9917;51.256;7.152;2022-11-14T02:17:02;4.63;;;3.73;;
19543;SDS011;9917;51.256;7.152;2022-11-14T02:19:40;8.53;;;3.80;;
19543;SDS011;9917;51.256;7.152;2022-11-14T02:22:08;6.93;;;4.33;;
19543;SDS011;9917;51.256;7.152;2022-11-14T02:24:35;5.73;;;3.83;;
19543;SDS011;9917;51.256;7.152;2022-11-14T02:27:01;8.50;;;4.07;;
19543;SDS011;9917;51.256;7.152;2022-11-14T02:29:27;8.17;;;3.73;;
19543;SDS011;9917;51.256;7.152;2022-11-14T02:31:53;5.20;;;3.70;;
19543;SDS011;9917;51.256;7.152;2022-11-14T02:34:19;6.13;;;3.63;;
19543;SDS011;9917;51.256;7.152;2022-11-14T02:36:45;5.33;;;3.40;;
19543;SDS011;9917;51.256;7.152;2022-11-14T02:39:12;7.27;;;3.27;;
19543;SDS011;9917;51.256;7.152;2022-11-14T02:41:38;5.70;;;3.70;;
19543;SDS011;9917;51.256;7.152;2022-11-14T02:44:04;6.47;;;3.90;;
19543;SDS011;9917;51.256;7.152;2022-11-14T02:46:30;8.20;;;4.23;;
19543;SDS011;9917;51.256;7.152;2022-11-14T02:48:56;6.23;;;3.60;;
19543;SDS011;9917;51.256;7.152;2022-11-14T02:51:22;6.27;;;3.80;;
19543;SDS011;9917;51.256;7.152;2022-11-14T02:53:48;7.30;;;4.33;;
19543;SDS011;9917;51.256;7.152;2022-11-14T02:56:15;6.10;;;3.80;;
19543;SDS011;9917;51.256;7.152;2022-11-14T02:58:41;7.13;;;3.93;;
19543;SDS011;9917;51.256;7.152;2022-11-14T03:01:07;5.33;;;3.63;;
19543;SDS011;9917;51.256;7.152;2022-11-14T03:03:33;4.90;;;3.40;;
19543;SDS011;9917;51.256;7.152;2022-11-14T03:05:59;5.73;;;3.10;;
19543;SDS011;9917;51.256;7.152;2022-11-14T03:08:26;5.80;;;3.83;;
19543;SDS011;9917;51.256;7.152;2022-11-14T03:10:52;7.73;;;3.77;;
19543;SDS011;9917;51.256;7.152;2022-11-14T03:13:19;5.93;;;3.80;;
19543;SDS011;9917;51.256;7.152;2022-11-14T03:15:45;5.60;;;3.63;;
19543;SDS011;9917;51.256;7.152;2022-11-14T03:18:11;6.57;;;3.40;;
19543;SDS011;9917;51.256;7.152;2022-11-14T03:20:37;6.47;;;3.73;;
19543;SDS011;9917;51.256;7.152;2022-11-14T03:23:03;6.70;;;3.90;;
19543;SDS011;9917;51.256;7.152;2022-11-14T03:25:29;8.00;;;4.23;;
19543;SDS011;9917;51.256;7.152;2022-11-14T03:27:55;4.83;;;3.47;;
19543;SDS011;9917;51.256;7.152;2022-11-14T03:30:23;5.70;;;3.60;;
19543;SDS011;9917;51.256;7.152;2022-11-14T03:32:49;5.53;;;3.50;;
19543;SDS011;9917;51.256;7.152;2022-11-14T03:35:15;5.57;;;3.73;;
19543;SDS011;9917;51.256;7.152;2022-11-14T03:37:41;7.67;;;3.60;;
19543;SDS011;9917;51.256;7.152;2022-11-14T03:40:07;7.00;;;3.97;;
19543;SDS011;9917;51.256;7.152;2022-11-14T03:42:34;7.97;;;3.97;;
19543;SDS011;9917;51.256;7.152;2022-11-14T03:45:00;5.23;;;3.33;;
19543;SDS011;9917;51.256;7.152;2022-11-14T03:47:27;5.90;;;3.63;;
19543;SDS011;9917;51.256;7.152;2022-11-14T03:49:53;5.50;;;3.70;;
19543;SDS011;9917;51.256;7.152;2022-11-14T03:52:19;6.40;;;3.70;;
19543;SDS011;9917;51.256;7.152;2022-11-14T03:54:45;6.13;;;3.33;;
19543;SDS011;9917;51.256;7.152;2022-11-14T03:57:11;7.73;;;3.70;;
19543;SDS011;9917;51.256;7.152;2022-11-14T03:59:37;5.90;;;3.43;;
19543;SDS011;9917;51.256;7.152;2022-11-14T04:02:03;7.53;;;3.63;;
19543;SDS011;9917;51.256;7.152;2022-11-14T04:04:30;6.70;;;3.60;;
19543;SDS011;9917;51.256;7.152;2022-11-14T04:06:56;8.70;;;3.67;;
19543;SDS011;9917;51.256;7.152;2022-11-14T04:09:22;5.43;;;3.47;;
19543;SDS011;9917;51.256;7.152;2022-11-14T04:11:48;5.30;;;3.67;;
19543;SDS011;9917;51.256;7.152;2022-11-14T04:14:14;4.47;;;3.30;;
19543;SDS011;9917;51.256;7.152;2022-11-14T04:16:40;5.27;;;3.43;;
19543;SDS011;9917;51.256;7.152;2022-11-14T04:19:06;6.33;;;3.87;;
19543;SDS011;9917;51.256;7.152;2022-11-14T04:21:34;4.47;;;3.20;;
19543;SDS011;9917;51.256;7.152;2022-11-14T04:24:00;5.80;;;4.20;;
19543;SDS011;9917;51.256;7.152;2022-11-14T04:26:26;6.37;;;3.43;;
19543;SDS011;9917;51.256;7.152;2022-11-14T04:28:52;7.47;;;3.53;;
19543;SDS011;9917;51.256;7.152;2022-11-14T04:31:18;5.87;;;3.40;;
19543;SDS011;9917;51.256;7.152;2022-11-14T04:33:44;5.83;;;3.50;;
19543;SDS011;9917;51.256;7.152;2022-11-14T04:36:10;5.73;;;3.23;;
19543;SDS011;9917;51.256;7.152;2022-11-14T04:38:37;8.37;;;3.60;;
19543;SDS011;9917;51.256;7.152;2022-11-14T04:41:03;5.27;;;3.47;;
19543;SDS011;9917;51.256;7.152;2022-11-14T04:43:29;5.47;;;3.70;;
19543;SDS011;9917;51.256;7.152;2022-11-14T04:45:55;6.07;;;3.90;;
19543;SDS011;9917;51.256;7.152;2022-11-14T04:48:21;6.87;;;3.63;;
19543;SDS011;9917;51.256;7.152;2022-11-14T04:50:47;4.97;;;3.63;;
19543;SDS011;9917;51.256;7.152;2022-11-14T04:53:13;5.73;;;3.70;;
19543;SDS011;9917;51.256;7.152;2022-11-14T04:55:42;8.13;;;4.13;;
19543;SDS011;9917;51.256;7.152;2022-11-14T04:58:08;6.23;;;4.17;;
19543;SDS011;9917;51.256;7.152;2022-11-14T05:00:34;8.90;;;4.53;;
19543;SDS011;9917;51.256;7.152;2022-11-14T05:03:00;6.47;;;3.77;;
19543;SDS011;9917;51.256;7.152;2022-11-14T05:05:26;8.20;;;4.27;;
19543;SDS011;9917;51.256;7.152;2022-11-14T05:07:53;31.37;;;15.63;;
19543;SDS011;9917;51.256;7.152;2022-11-14T05:10:19;27.00;;;13.77;;
19543;SDS011;9917;51.256;7.152;2022-11-14T05:12:46;39.20;;;19.33;;
19543;SDS011;9917;51.256;7.152;2022-11-14T05:15:12;10.60;;;6.10;;
19543;SDS011;9917;51.256;7.152;2022-11-14T05:17:38;13.87;;;8.03;;
19543;SDS011;9917;51.256;7.152;2022-11-14T05:20:04;33.13;;;16.93;;
19543;SDS011;9917;51.256;7.152;2022-11-14T05:22:30;26.73;;;13.73;;
19543;SDS011;9917;51.256;7.152;2022-11-14T05:24:56;14.63;;;8.17;;
19543;SDS011;9917;51.256;7.152;2022-11-14T05:27:22;14.87;;;7.43;;
19543;SDS011;9917;51.256;7.152;2022-11-14T05:29:50;11.50;;;5.70;;
19543;SDS011;9917;51.256;7.152;2022-11-14T05:32:16;30.33;;;16.13;;
19543;SDS011;9917;51.256;7.152;2022-11-14T05:34:42;11.20;;;6.00;;
19543;SDS011;9917;51.256;7.152;2022-11-14T05:37:08;16.27;;;6.57;;
19543;SDS011;9917;51.256;7.152;2022-11-14T05:39:34;10.47;;;5.30;;
19543;SDS011;9917;51.256;7.152;2022-11-14T05:42:00;8.63;;;5.50;;
19543;SDS011;9917;51.256;7.152;2022-11-14T05:44:26;14.63;;;5.93;;
19543;SDS011;9917;51.256;7.152;2022-11-14T05:46:53;6.60;;;4.90;;
19543;SDS011;9917;51.256;7.152;2022-11-14T05:49:19;9.60;;;5.80;;
19543;SDS011;9917;51.256;7.152;2022-11-14T05:51:45;8.40;;;5.27;;
19543;SDS011;9917;51.256;7.152;2022-11-14T05:54:11;9.03;;;5.97;;
19543;SDS011;9917;51.256;7.152;2022-11-14T05:56:37;11.77;;;5.20;;
19543;SDS011;9917;51.256;7.152;2022-11-14T05:59:03;9.20;;;5.27;;
19543;SDS011;9917;51.256;7.152;2022-11-14T06:01:29;10.63;;;5.40;;
19543;SDS011;9917;51.256;7.152;2022-11-14T06:03:56;9.53;;;5.93;;
19543;SDS011;9917;51.256;7.152;2022-11-14T06:06:22;11.33;;;5.77;;
19543;SDS011;9917;51.256;7.152;2022-11-14T06:08:48;7.90;;;5.73;;
19543;SDS011;9917;51.256;7.152;2022-11-14T06:11:15;11.13;;;5.97;;
19543;SDS011;9917;51.256;7.152;2022-11-14T06:13:42;10.70;;;5.17;;
19543;SDS011;9917;51.256;7.152;2022-11-14T06:16:09;8.97;;;5.00;;
19543;SDS011;9917;51.256;7.152;2022-11-14T06:18:36;12.17;;;5.90;;
19543;SDS011;9917;51.256;7.152;2022-11-14T06:21:05;11.20;;;5.53;;
19543;SDS011;9917;51.256;7.152;2022-11-14T06:23:31;9.53;;;5.80;;
19543;SDS011;9917;51.256;7.152;2022-11-14T06:25:57;10.47;;;5.97;;
19543;SDS011;9917;51.256;7.152;2022-11-14T06:28:23;10.40;;;5.73;;
19543;SDS011;9917;51.256;7.152;2022-11-14T06:30:49;11.10;;;5.70;;
19543;SDS011;9917;51.256;7.152;2022-11-14T06:33:15;13.40;;;6.30;;
19543;SDS011;9917;51.256;7.152;2022-11-14T06:35:41;12.93;;;6.73;;
19543;SDS011;9917;51.256;7.152;2022-11-14T06:38:09;11.63;;;6.23;;
19543;SDS011;9917;51.256;7.152;2022-11-14T06:40:35;14.53;;;6.40;;
19543;SDS011;9917;51.256;7.152;2022-11-14T06:43:01;12.83;;;6.90;;
19543;SDS011;9917;51.256;7.152;2022-11-14T06:45:27;17.73;;;6.87;;
19543;SDS011;9917;51.256;7.152;2022-11-14T06:47:56;15.63;;;6.50;;
19543;SDS011;9917;51.256;7.152;2022-11-14T06:50:22;10.30;;;6.87;;
19543;SDS011;9917;51.256;7.152;2022-11-14T06:52:48;14.60;;;7.23;;
19543;SDS011;9917;51.256;7.152;2022-11-14T06:55:16;14.73;;;7.23;;
19543;SDS011;9917;51.256;7.152;2022-11-14T06:57:42;15.37;;;7.83;;
19543;SDS011;9917;51.256;7.152;2022-11-14T07:00:08;13.37;;;7.30;;
19543;SDS011;9917;51.256;7.152;2022-11-14T07:02:34;12.20;;;7.13;;
19543;SDS011;9917;51.256;7.152;2022-11-14T07:05:00;12.70;;;7.57;;
19543;SDS011;9917;51.256;7.152;2022-11-14T07:07:26;12.37;;;7.00;;
19543;SDS011;9917;51.256;7.152;2022-11-14T07:09:52;12.43;;;7.07;;
19543;SDS011;9917;51.256;7.152;2022-11-14T07:12:19;12.87;;;6.43;;
19543;SDS011;9917;51.256;7.152;2022-11-14T07:14:45;12.50;;;6.80;;
19543;SDS011;9917;51.256;7.152;2022-11-14T07:17:11;11.07;;;6.43;;
19543;SDS011;9917;51.256;7.152;2022-11-14T07:19:37;11.47;;;6.30;;
19543;SDS011;9917;51.256;7.152;2022-11-14T07:22:03;10.80;;;6.70;;
19543;SDS011;9917;51.256;7.152;2022-11-14T07:24:29;14.80;;;6.53;;
19543;SDS011;9917;51.256;7.152;2022-11-14T07:26:55;12.47;;;7.37;;
19543;SDS011;9917;51.256;7.152;2022-11-14T07:29:23;12.93;;;6.70;;
19543;SDS011;9917;51.256;7.152;2022-11-14T07:31:49;14.53;;;6.80;;
19543;SDS011;9917;51.256;7.152;2022-11-14T07:34:15;11.13;;;6.87;;
19543;SDS011;9917;51.256;7.152;2022-11-14T07:36:41;15.67;;;7.53;;
19543;SDS011;9917;51.256;7.152;2022-11-14T07:39:07;10.47;;;6.70;;
19543;SDS011;9917;51.256;7.152;2022-11-14T07:41:33;14.10;;;7.53;;
19543;SDS011;9917;51.256;7.152;2022-11-14T07:43:59;14.00;;;6.77;;
19543;SDS011;9917;51.256;7.152;2022-11-14T07:46:27;15.77;;;7.00;;
19543;SDS011;9917;51.256;7.152;2022-11-14T07:48:55;14.33;;;7.57;;
19543;SDS011;9917;51.256;7.152;2022-11-14T07:51:21;12.27;;;7.03;;
19543;SDS011;9917;51.256;7.152;2022-11-14T07:53:50;14.00;;;7.00;;
19543;SDS011;9917;51.256;7.152;2022-11-14T07:56:24;13.07;;;6.93;;
19543;SDS011;9917;51.256;7.152;2022-11-14T07:58:50;12.87;;;7.10;;
19543;SDS011;9917;51.256;7.152;2022-11-14T08:01:16;13.77;;;6.67;;
19543;SDS011;9917;51.256;7.152;2022-11-14T08:03:43;14.33;;;7.00;;
19543;SDS011;9917;51.256;7.152;2022-11-14T08:06:11;11.57;;;6.83;;
19543;SDS011;9917;51.256;7.152;2022-11-14T08:08:37;13.83;;;7.60;;
19543;SDS011;9917;51.256;7.152;2022-11-14T08:11:03;14.43;;;7.30;;
19543;SDS011;9917;51.256;7.152;2022-11-14T08:13:30;15.43;;;8.57;;
19543;SDS011;9917;51.256;7.152;2022-11-14T08:15:56;14.27;;;8.13;;
19543;SDS011;9917;51.256;7.152;2022-11-14T08:18:22;13.70;;;7.63;;
19543;SDS011;9917;51.256;7.152;2022-11-14T08:20:49;13.93;;;7.97;;
19543;SDS011;9917;51.256;7.152;2022-11-14T08:23:15;16.37;;;8.27;;
19543;SDS011;9917;51.256;7.152;2022-11-14T08:25:41;16.23;;;8.37;;
19543;SDS011;9917;51.256;7.152;2022-11-14T08:28:07;15.23;;;8.60;;
19543;SDS011;9917;51.256;7.152;2022-11-14T08:30:33;16.93;;;9.70;;
19543;SDS011;9917;51.256;7.152;2022-11-14T08:33:00;16.50;;;9.43;;
19543;SDS011;9917;51.256;7.152;2022-11-14T08:35:26;16.27;;;9.53;;
19543;SDS011;9917;51.256;7.152;2022-11-14T08:37:54;17.57;;;10.20;;
19543;SDS011;9917;51.256;7.152;2022-11-14T08:40:20;17.27;;;10.40;;
19543;SDS011;9917;51.256;7.152;2022-11-14T08:42:46;19.27;;;10.40;;
19543;SDS011;9917;51.256;7.152;2022-11-14T08:45:12;20.87;;;11.83;;
19543;SDS011;9917;51.256;7.152;2022-11-14T08:47:38;20.20;;;12.03;;
19543;SDS011;9917;51.256;7.152;2022-11-14T08:50:04;21.67;;;11.53;;
19543;SDS011;9917;51.256;7.152;2022-11-14T08:52:30;18.43;;;11.10;;
19543;SDS011;9917;51.256;7.152;2022-11-14T08:54:58;21.73;;;11.27;;
19543;SDS011;9917;51.256;7.152;2022-11-14T08:57:24;23.00;;;12.40;;
19543;SDS011;9917;51.256;7.152;2022-11-14T09:00:01;21.33;;;12.00;;
19543;SDS011;9917;51.256;7.152;2022-11-14T09:02:28;22.27;;;12.20;;
19543;SDS011;9917;51.256;7.152;2022-11-14T09:04:54;20.93;;;12.43;;
19543;SDS011;9917;51.256;7.152;2022-11-14T09:07:20;25.13;;;13.10;;
19543;SDS011;9917;51.256;7.152;2022-11-14T09:09:46;20.50;;;11.73;;
19543;SDS011;9917;51.256;7.152;2022-11-14T09:12:13;25.27;;;13.00;;
19543;SDS011;9917;51.256;7.152;2022-11-14T09:14:39;22.83;;;12.80;;
19543;SDS011;9917;51.256;7.152;2022-11-14T09:17:05;22.93;;;12.63;;
19543;SDS011;9917;51.256;7.152;2022-11-14T09:19:38;26.83;;;13.80;;
19543;SDS011;9917;51.256;7.152;2022-11-14T09:22:05;19.87;;;11.57;;
19543;SDS011;9917;51.256;7.152;2022-11-14T09:24:34;23.90;;;13.10;;
19543;SDS011;9917;51.256;7.152;2022-11-14T09:27:00;23.17;;;12.50;;
19543;SDS011;9917;51.256;7.152;2022-11-14T09:29:31;21.73;;;11.80;;
19543;SDS011;9917;51.256;7.152;2022-11-14T09:31:57;20.77;;;11.63;;
19543;SDS011;9917;51.256;7.152;2022-11-14T09:34:23;23.63;;;11.97;;
19543;SDS011;9917;51.256;7.152;2022-11-14T09:36:49;24.00;;;11.63;;
19543;SDS011;9917;51.256;7.152;2022-11-14T09:39:15;17.67;;;10.23;;
19543;SDS011;9917;51.256;7.152;2022-11-14T09:41:46;22.63;;;11.70;;
19543;SDS011;9917;51.256;7.152;2022-11-14T09:44:27;23.20;;;11.33;;
19543;SDS011;9917;51.256;7.152;2022-11-14T09:47:06;22.50;;;11.07;;
19543;SDS011;9917;51.256;7.152;2022-11-14T09:49:36;16.83;;;9.83;;
19543;SDS011;9917;51.256;7.152;2022-11-14T09:52:07;26.87;;;10.67;;
19543;SDS011;9917;51.256;7.152;2022-11-14T09:54:39;18.80;;;9.90;;
19543;SDS011;9917;51.256;7.152;2022-11-14T09:57:12;17.50;;;9.17;;
19543;SDS011;9917;51.256;7.152;2022-11-14T09:59:41;18.23;;;9.17;;
19543;SDS011;9917;51.256;7.152;2022-11-14T10:02:12;17.70;;;9.47;;
19543;SDS011;9917;51.256;7.152;2022-11-14T10:04:59;14.47;;;8.37;;
19543;SDS011;9917;51.256;7.152;2022-11-14T10:07:39;15.80;;;9.13;;
19543;SDS011;9917;51.256;7.152;2022-11-14T10:10:22;13.60;;;8.13;;
19543;SDS011;9917;51.256;7.152;2022-11-14T10:12:53;14.67;;;8.23;;
19543;SDS011;9917;51.256;7.152;2022-11-14T10:15:28;16.13;;;8.30;;
19543;SDS011;9917;51.256;7.152;2022-11-14T10:18:02;16.73;;;9.77;;
19543;SDS011;9917;51.256;7.152;2022-11-14T10:20:37;19.17;;;8.97;;
19543;SDS011;9917;51.256;7.152;2022-11-14T10:23:18;17.17;;;10.37;;
19543;SDS011;9917;51.256;7.152;2022-11-14T10:25:54;17.23;;;9.60;;
19543;SDS011;9917;51.256;7.152;2022-11-14T10:28:33;18.77;;;9.50;;
19543;SDS011;9917;51.256;7.152;2022-11-14T10:31:12;20.73;;;9.97;;
19543;SDS011;9917;51.256;7.152;2022-11-14T10:33:46;15.70;;;8.00;;
19543;SDS011;9917;51.256;7.152;2022-11-14T10:36:24;18.03;;;9.53;;
19543;SDS011;9917;51.256;7.152;2022-11-14T10:39:02;15.97;;;9.40;;
19543;SDS011;9917;51.256;7.152;2022-11-14T10:41:35;17.53;;;8.83;;
19543;SDS011;9917;51.256;7.152;2022-11-14T10:44:02;16.90;;;9.10;;
19543;SDS011;9917;51.256;7.152;2022-11-14T10:46:31;16.30;;;8.50;;
19543;SDS011;9917;51.256;7.152;2022-11-14T10:49:00;19.47;;;9.23;;
19543;SDS011;9917;51.256;7.152;2022-11-14T10:51:28;17.30;;;9.17;;
19543;SDS011;9917;51.256;7.152;2022-11-14T10:53:59;19.70;;;10.03;;
19543;SDS011;9917;51.256;7.152;2022-11-14T10:56:29;16.87;;;9.17;;
19543;SDS011;9917;51.256;7.152;2022-11-14T10:58:55;17.47;;;9.63;;
19543;SDS011;9917;51.256;7.152;2022-11-14T11:01:32;18.97;;;10.47;;
19543;SDS011;9917;51.256;7.152;2022-11-14T11:04:13;16.97;;;8.90;;
19543;SDS011;9917;51.256;7.152;2022-11-14T11:06:43;18.83;;;10.00;;
19543;SDS011;9917;51.256;7.152;2022-11-14T11:09:12;20.27;;;10.83;;
19543;SDS011;9917;51.256;7.152;2022-11-14T11:11:40;18.17;;;9.97;;
19543;SDS011;9917;51.256;7.152;2022-11-14T11:14:08;18.07;;;10.10;;
19543;SDS011;9917;51.256;7.152;2022-11-14T11:16:42;16.37;;;9.27;;
19543;SDS011;9917;51.256;7.152;2022-11-14T11:19:14;18.07;;;9.60;;
19543;SDS011;9917;51.256;7.152;2022-11-14T11:21:48;17.27;;;10.07;;
19543;SDS011;9917;51.256;7.152;2022-11-14T11:24:25;20.43;;;10.47;;
19543;SDS011;9917;51.256;7.152;2022-11-14T11:29:43;16.55;;;10.38;;
19543;SDS011;9917;51.256;7.152;2022-11-14T11:32:11;21.08;;;11.05;;
19543;SDS011;9917;51.256;7.152;2022-11-14T11:34:48;19.43;;;10.27;;
19543;SDS011;9917;51.256;7.152;2022-11-14T11:37:17;16.23;;;9.75;;
19543;SDS011;9917;51.256;7.152;2022-11-14T11:39:46;20.80;;;10.53;;
19543;SDS011;9917;51.256;7.152;2022-11-14T11:42:15;20.00;;;10.77;;
19543;SDS011;9917;51.256;7.152;2022-11-14T11:44:47;18.23;;;10.87;;
19543;SDS011;9917;51.256;7.152;2022-11-14T11:47:21;18.13;;;10.23;;
19543;SDS011;9917;51.256;7.152;2022-11-14T11:49:47;18.13;;;10.03;;
19543;SDS011;9917;51.256;7.152;2022-11-14T11:52:16;17.50;;;9.80;;
19543;SDS011;9917;51.256;7.152;2022-11-14T11:54:49;19.17;;;10.07;;
19543;SDS011;9917;51.256;7.152;2022-11-14T11:57:22;19.42;;;9.55;;
19543;SDS011;9917;51.256;7.152;2022-11-14T11:59:53;19.35;;;10.68;;
19543;SDS011;9917;51.256;7.152;2022-11-14T12:02:24;17.73;;;9.75;;
19543;SDS011;9917;51.256;7.152;2022-11-14T12:04:51;21.23;;;10.70;;
19543;SDS011;9917;51.256;7.152;2022-11-14T12:07:20;15.25;;;8.90;;
19543;SDS011;9917;51.256;7.152;2022-11-14T12:09:49;18.50;;;9.88;;
19543;SDS011;9917;51.256;7.152;2022-11-14T12:12:19;16.57;;;8.67;;
19543;SDS011;9917;51.256;7.152;2022-11-14T12:14:54;15.53;;;8.90;;
19543;SDS011;9917;51.256;7.152;2022-11-14T12:23:52;13.60;;;8.33;;
19543;SDS011;9917;51.256;7.152;2022-11-14T12:26:41;15.53;;;8.30;;
19543;SDS011;9917;51.256;7.152;2022-11-14T12:29:34;14.80;;;7.07;;
19543;SDS011;9917;51.256;7.152;2022-11-14T12:32:15;16.53;;;8.50;;
19543;SDS011;9917;51.256;7.152;2022-11-14T12:34:55;12.83;;;7.47;;
19543;SDS011;9917;51.256;7.152;2022-11-14T12:37:22;14.73;;;8.07;;
19543;SDS011;9917;51.256;7.152;2022-11-14T12:39:55;13.20;;;7.70;;
19543;SDS011;9917;51.256;7.152;2022-11-14T12:42:23;15.93;;;8.53;;
19543;SDS011;9917;51.256;7.152;2022-11-14T12:44:49;17.40;;;8.13;;
19543;SDS011;9917;51.256;7.152;2022-11-14T12:47:18;17.97;;;8.93;;
19543;SDS011;9917;51.256;7.152;2022-11-14T12:49:57;15.20;;;8.87;;
19543;SDS011;9917;51.256;7.152;2022-11-14T12:52:46;15.60;;;8.57;;
19543;SDS011;9917;51.256;7.152;2022-11-14T12:58:19;18.43;;;9.43;;
19543;SDS011;9917;51.256;7.152;2022-11-14T13:00:57;16.97;;;9.50;;
19543;SDS011;9917;51.256;7.152;2022-11-14T13:03:36;18.13;;;9.37;;
19543;SDS011;9917;51.256;7.152;2022-11-14T13:06:15;17.80;;;9.93;;
19543;SDS011;9917;51.256;7.152;2022-11-14T13:11:51;17.40;;;8.63;;
19543;SDS011;9917;51.256;7.152;2022-11-14T13:14:17;18.52;;;9.30;;
19543;SDS011;9917;51.256;7.152;2022-11-14T13:16:44;18.95;;;9.23;;
19543;SDS011;9917;51.256;7.152;2022-11-14T13:19:12;18.83;;;10.13;;
19543;SDS011;9917;51.256;7.152;2022-11-14T13:27:42;18.55;;;10.35;;
19543;SDS011;9917;51.256;7.152;2022-11-14T13:30:08;18.40;;;10.07;;
19543;SDS011;9917;51.256;7.152;2022-11-14T13:35:33;20.20;;;10.53;;
19543;SDS011;9917;51.256;7.152;2022-11-14T13:38:40;17.93;;;9.87;;
19543;SDS011;9917;51.256;7.152;2022-11-14T13:51:09;18.53;;;10.17;;
19543;SDS011;9917;51.256;7.152;2022-11-14T13:53:39;18.40;;;10.83;;
19543;SDS011;9917;51.256;7.152;2022-11-14T13:56:08;18.03;;;10.20;;
19543;SDS011;9917;51.256;7.152;2022-11-14T13:58:55;18.77;;;10.33;;
19543;SDS011;9917;51.256;7.152;2022-11-14T14:01:49;21.80;;;10.60;;
19543;SDS011;9917;51.256;7.152;2022-11-14T14:04:29;20.37;;;10.40;;
19543;SDS011;9917;51.256;7.152;2022-11-14T14:07:10;19.80;;;10.63;;
19543;SDS011;9917;51.256;7.152;2022-11-14T14:09:43;17.87;;;10.03;;
19543;SDS011;9917;51.256;7.152;2022-11-14T14:12:26;19.67;;;10.13;;
19543;SDS011;9917;51.256;7.152;2022-11-14T14:15:05;18.40;;;9.63;;
19543;SDS011;9917;51.256;7.152;2022-11-14T14:17:43;19.87;;;11.03;;
19543;SDS011;9917;51.256;7.152;2022-11-14T14:20:18;17.67;;;9.70;;
19543;SDS011;9917;51.256;7.152;2022-11-14T14:22:58;19.37;;;9.67;;
19543;SDS011;9917;51.256;7.152;2022-11-14T14:25:33;21.10;;;10.80;;
19543;SDS011;9917;51.256;7.152;2022-11-14T14:28:08;18.53;;;10.27;;
19543;SDS011;9917;51.256;7.152;2022-11-14T14:30:39;18.20;;;10.10;;
19543;SDS011;9917;51.256;7.152;2022-11-14T14:33:11;15.27;;;9.07;;
19543;SDS011;9917;51.256;7.152;2022-11-14T14:35:39;20.23;;;10.10;;
19543;SDS011;9917;51.256;7.152;2022-11-14T14:38:20;19.80;;;11.27;;
19543;SDS011;9917;51.256;7.152;2022-11-14T14:40:47;16.37;;;9.13;;
19543;SDS011;9917;51.256;7.152;2022-11-14T14:43:20;18.70;;;9.40;;
19543;SDS011;9917;51.256;7.152;2022-11-14T14:45:50;24.23;;;11.33;;
19543;SDS011;9917;51.256;7.152;2022-11-14T14:48:20;19.27;;;10.03;;
19543;SDS011;9917;51.256;7.152;2022-11-14T14:50:49;18.40;;;9.97;;
19543;SDS011;9917;51.256;7.152;2022-11-14T14:53:18;22.17;;;10.10;;
19543;SDS011;9917;51.256;7.152;2022-11-14T14:55:49;19.83;;;10.10;;
19543;SDS011;9917;51.256;7.152;2022-11-14T14:58:22;20.37;;;10.23;;
19543;SDS011;9917;51.256;7.152;2022-11-14T15:00:49;17.73;;;9.00;;
19543;SDS011;9917;51.256;7.152;2022-11-14T15:03:18;19.77;;;9.43;;
19543;SDS011;9917;51.256;7.152;2022-11-14T15:05:45;17.80;;;9.60;;
19543;SDS011;9917;51.256;7.152;2022-11-14T15:08:11;14.93;;;8.90;;
19543;SDS011;9917;51.256;7.152;2022-11-14T15:10:39;16.83;;;9.87;;
19543;SDS011;9917;51.256;7.152;2022-11-14T15:13:06;15.73;;;9.33;;
19543;SDS011;9917;51.256;7.152;2022-11-14T15:15:34;16.67;;;9.63;;
19543;SDS011;9917;51.256;7.152;2022-11-14T15:18:04;19.07;;;10.37;;
19543;SDS011;9917;51.256;7.152;2022-11-14T15:20:32;17.60;;;8.73;;
19543;SDS011;9917;51.256;7.152;2022-11-14T15:23:02;18.60;;;9.50;;
19543;SDS011;9917;51.256;7.152;2022-11-14T15:25:29;17.97;;;9.37;;
19543;SDS011;9917;51.256;7.152;2022-11-14T15:27:55;14.97;;;9.00;;
19543;SDS011;9917;51.256;7.152;2022-11-14T15:30:22;22.60;;;10.50;;
19543;SDS011;9917;51.256;7.152;2022-11-14T15:32:51;15.50;;;9.60;;
19543;SDS011;9917;51.256;7.152;2022-11-14T15:35:25;17.03;;;9.77;;